createdAt,value
2022-12-25T00:00:33.183Z,22.00
2022-12-25T00:03:00.113Z,24.65
2022-12-25T00:05:26.856Z,40.05
2022-12-25T00:07:53.399Z,59.03
2022-12-25T00:10:20.059Z,45.63
2022-12-25T00:12:46.582Z,37.83
2022-12-25T00:15:13.122Z,33.42
2022-12-25T00:17:41.053Z,34.70
2022-12-25T00:20:08.890Z,24.87
2022-12-25T00:22:35.486Z,25.30
2022-12-25T00:25:02.160Z,19.95
2022-12-25T00:27:31.544Z,17.90
2022-12-25T00:29:58.146Z,16.40
2022-12-25T00:32:24.709Z,16.60
2022-12-25T00:34:52.650Z,16.25
2022-12-25T00:37:19.193Z,18.90
2022-12-25T00:39:48.327Z,19.17
2022-12-25T00:42:14.864Z,17.23
2022-12-25T00:44:43.881Z,14.93
2022-12-25T00:47:10.587Z,14.48
2022-12-25T00:49:37.280Z,14.80
2022-12-25T00:52:05.342Z,16.83
2022-12-25T00:54:31.978Z,17.30
2022-12-25T00:56:58.708Z,17.00
2022-12-25T00:59:25.319Z,14.70
2022-12-25T01:01:52.056Z,15.65
2022-12-25T01:04:18.724Z,13.00
2022-12-25T01:06:45.446Z,13.65
2022-12-25T01:09:13.473Z,13.07
2022-12-25T01:11:40.075Z,14.55
2022-12-25T01:14:06.915Z,13.63
2022-12-25T01:16:33.702Z,14.68
2022-12-25T01:19:00.522Z,16.25
2022-12-25T01:21:27.570Z,14.13
2022-12-25T01:23:54.592Z,10.35
2022-12-25T01:26:24.851Z,19.48
2022-12-25T01:28:51.788Z,13.52
2022-12-25T01:31:21.447Z,19.17
2022-12-25T01:33:48.492Z,19.13
2022-12-25T01:36:16.439Z,15.73
2022-12-25T01:38:43.539Z,11.57
2022-12-25T01:41:11.322Z,16.77
2022-12-25T01:44:05.541Z,15.25
2022-12-25T01:46:32.603Z,14.63
2022-12-25T01:49:02.895Z,15.45
2022-12-25T01:51:33.777Z,12.23
2022-12-25T01:54:03.852Z,13.50
2022-12-25T01:56:31.929Z,11.57
2022-12-25T01:59:02.372Z,11.30
2022-12-25T02:01:29.111Z,14.52
2022-12-25T02:04:03.091Z,15.23
2022-12-25T02:06:29.744Z,19.88
2022-12-25T02:08:58.374Z,12.27
2022-12-25T02:11:24.881Z,13.20
2022-12-25T02:13:51.416Z,18.45
2022-12-25T02:16:23.688Z,15.30
2022-12-25T02:18:56.203Z,10.85
2022-12-25T02:21:40.246Z,14.82
2022-12-25T02:24:22.446Z,13.10
2022-12-25T02:27:08.058Z,14.05
2022-12-25T02:29:47.785Z,15.65
2022-12-25T02:32:20.503Z,13.30
2022-12-25T02:34:51.858Z,17.30
2022-12-25T02:37:26.448Z,12.03
2022-12-25T02:40:00.628Z,10.70
2022-12-25T02:42:34.706Z,12.50
2022-12-25T02:45:04.111Z,9.90
2022-12-25T02:47:32.293Z,11.15
2022-12-25T02:50:00.789Z,12.33
2022-12-25T02:52:29.709Z,15.63
2022-12-25T02:55:00.623Z,14.43
2022-12-25T02:57:33.725Z,16.00
2022-12-25T03:00:05.230Z,16.10
2022-12-25T03:02:33.906Z,16.17
2022-12-25T03:05:03.186Z,13.73
2022-12-25T03:07:31.131Z,17.33
2022-12-25T03:10:05.514Z,15.25
2022-12-25T03:12:40.644Z,10.50
2022-12-25T03:15:12.404Z,14.87
2022-12-25T03:17:39.020Z,12.25
2022-12-25T03:20:06.986Z,11.85
2022-12-25T03:22:34.282Z,12.18
2022-12-25T03:25:00.885Z,14.25
2022-12-25T03:27:33.132Z,15.30
2022-12-25T03:30:00.212Z,13.05
2022-12-25T03:32:38.779Z,11.13
2022-12-25T03:35:14.728Z,11.85
2022-12-25T03:37:51.120Z,13.68
2022-12-25T03:40:28.523Z,16.80
2022-12-25T03:43:01.704Z,12.93
2022-12-25T03:45:37.071Z,13.45
2022-12-25T03:48:06.979Z,14.88
2022-12-25T03:50:37.609Z,9.63
2022-12-25T03:53:09.749Z,14.73
2022-12-25T03:55:36.859Z,13.10
2022-12-25T03:58:03.695Z,13.65
2022-12-25T04:00:30.268Z,11.85
2022-12-25T04:02:56.907Z,14.05
2022-12-25T04:05:24.812Z,10.97
2022-12-25T04:07:51.524Z,14.38
2022-12-25T04:10:18.382Z,14.18
2022-12-25T04:12:44.968Z,11.65
2022-12-25T04:15:11.554Z,17.42
2022-12-25T04:17:38.131Z,14.03
2022-12-25T04:20:05.802Z,15.98
2022-12-25T04:22:33.865Z,14.77
2022-12-25T04:25:00.463Z,12.18
2022-12-25T04:27:27.200Z,14.27
2022-12-25T04:29:53.697Z,16.73
2022-12-25T04:32:20.432Z,11.63
2022-12-25T04:34:46.991Z,15.52
2022-12-25T04:37:13.647Z,19.13
2022-12-25T04:39:41.647Z,16.60
2022-12-25T04:42:08.186Z,18.83
2022-12-25T04:44:34.720Z,18.95
2022-12-25T04:47:05.876Z,14.02
2022-12-25T04:49:35.915Z,16.17
2022-12-25T04:52:02.436Z,14.00
2022-12-25T04:54:29.005Z,18.87
2022-12-25T04:56:57.379Z,16.13
2022-12-25T04:59:24.109Z,15.35
2022-12-25T05:01:50.693Z,17.00
2022-12-25T05:04:17.413Z,16.67
2022-12-25T05:06:44.211Z,16.63
2022-12-25T05:09:10.733Z,16.27
2022-12-25T05:11:37.428Z,16.08
2022-12-25T05:14:05.339Z,15.60
2022-12-25T05:16:31.917Z,21.40
2022-12-25T05:18:58.518Z,12.53
2022-12-25T05:21:25.121Z,15.77
2022-12-25T05:23:52.648Z,17.17
2022-12-25T05:26:21.189Z,16.42
2022-12-25T05:28:48.243Z,18.63
2022-12-25T05:31:17.098Z,19.20
2022-12-25T05:33:43.617Z,14.35
2022-12-25T05:36:12.585Z,17.05
2022-12-25T05:38:39.634Z,13.43
2022-12-25T05:41:06.374Z,13.65
2022-12-25T05:43:33.131Z,11.90
2022-12-25T05:46:04.495Z,16.23
2022-12-25T05:48:32.533Z,17.25
2022-12-25T05:51:04.251Z,15.80
2022-12-25T05:53:30.823Z,14.82
2022-12-25T05:56:00.965Z,13.73
2022-12-25T05:58:27.547Z,16.48
2022-12-25T06:00:54.114Z,14.15
2022-12-25T06:03:21.046Z,15.52
2022-12-25T06:05:49.459Z,18.77
2022-12-25T06:08:15.989Z,16.13
2022-12-25T06:10:42.502Z,14.02
2022-12-25T06:13:09.202Z,18.33
2022-12-25T06:15:38.713Z,14.70
2022-12-25T06:18:05.363Z,14.82
2022-12-25T06:20:32.122Z,14.73
2022-12-25T06:23:00.021Z,15.38
2022-12-25T06:25:26.722Z,16.02
2022-12-25T06:27:53.376Z,17.90
2022-12-25T06:30:20.194Z,19.23
2022-12-25T06:32:46.744Z,18.13
2022-12-25T06:35:13.493Z,18.23
2022-12-25T06:37:40.074Z,17.10
2022-12-25T06:40:09.099Z,17.05
2022-12-25T06:42:35.609Z,19.35
2022-12-25T06:45:02.157Z,19.43
2022-12-25T06:47:28.865Z,13.73
2022-12-25T06:49:55.439Z,15.77
2022-12-25T06:52:22.156Z,15.05
2022-12-25T06:54:48.733Z,12.75
2022-12-25T06:57:16.786Z,13.90
2022-12-25T06:59:43.328Z,12.63
2022-12-25T07:02:18.940Z,12.48
2022-12-25T07:04:47.095Z,14.52
2022-12-25T07:07:14.450Z,11.40
2022-12-25T07:09:41.471Z,14.63
2022-12-25T07:12:17.253Z,14.63
2022-12-25T07:14:43.834Z,15.32
2022-12-25T07:17:10.431Z,12.20
2022-12-25T07:19:42.668Z,13.43
2022-12-25T07:22:11.440Z,13.80
2022-12-25T07:24:37.972Z,12.18
2022-12-25T07:27:04.635Z,10.93
2022-12-25T07:29:32.838Z,11.00
2022-12-25T07:31:59.480Z,12.20
2022-12-25T07:34:26.461Z,9.00
2022-12-25T07:36:55.005Z,9.70
2022-12-25T07:39:21.706Z,9.77
2022-12-25T07:41:48.191Z,9.43
2022-12-25T07:44:15.350Z,9.43
2022-12-25T07:46:43.554Z,9.50
2022-12-25T07:49:10.220Z,7.65
2022-12-25T07:51:36.861Z,9.25
2022-12-25T07:54:03.597Z,10.85
2022-12-25T07:56:30.261Z,7.53
2022-12-25T07:58:56.923Z,7.43
2022-12-25T08:01:26.151Z,7.30
2022-12-25T08:03:56.092Z,6.72
2022-12-25T08:06:25.097Z,6.35
2022-12-25T08:08:51.623Z,7.28
2022-12-25T08:11:18.401Z,8.63
2022-12-25T08:13:45.015Z,8.88
2022-12-25T08:16:11.637Z,8.73
2022-12-25T08:18:39.139Z,11.50
2022-12-25T08:21:09.772Z,11.50
2022-12-25T08:23:37.863Z,10.30
2022-12-25T08:26:06.498Z,11.88
2022-12-25T08:28:34.348Z,13.68
2022-12-25T08:31:06.365Z,11.10
2022-12-25T08:33:32.939Z,12.98
2022-12-25T08:36:02.078Z,13.73
2022-12-25T08:38:29.988Z,12.77
2022-12-25T08:40:56.568Z,12.68
2022-12-25T08:43:23.117Z,14.90
2022-12-25T08:45:49.695Z,15.23
2022-12-25T08:48:16.312Z,16.13
2022-12-25T08:50:45.580Z,14.63
2022-12-25T08:53:12.457Z,14.27
2022-12-25T08:55:40.738Z,12.60
2022-12-25T08:58:07.427Z,17.00
2022-12-25T09:00:34.025Z,12.33
2022-12-25T09:03:02.095Z,16.92
2022-12-25T09:05:28.985Z,15.55
2022-12-25T09:07:55.601Z,14.20
2022-12-25T09:10:22.254Z,13.40
2022-12-25T09:12:50.181Z,15.20
2022-12-25T09:15:16.902Z,14.60
2022-12-25T09:17:43.407Z,15.90
2022-12-25T09:20:10.361Z,12.15
2022-12-25T09:22:37.078Z,11.93
2022-12-25T09:25:04.281Z,12.83
2022-12-25T09:27:30.857Z,14.25
2022-12-25T09:29:58.688Z,12.82
2022-12-25T09:32:25.438Z,13.57
2022-12-25T09:34:51.942Z,15.18
2022-12-25T09:37:18.498Z,12.20
2022-12-25T09:39:46.527Z,12.20
2022-12-25T09:42:17.129Z,11.85
2022-12-25T09:44:46.894Z,12.15
2022-12-25T09:47:18.483Z,11.75
2022-12-25T09:49:52.465Z,14.33
2022-12-25T09:52:22.050Z,15.80
2022-12-25T09:54:56.284Z,11.23
2022-12-25T09:57:25.502Z,10.85
2022-12-25T09:59:54.049Z,15.32
2022-12-25T10:02:53.397Z,13.23
2022-12-25T10:05:42.395Z,11.32
2022-12-25T10:08:17.739Z,12.52
2022-12-25T10:10:51.668Z,10.88
2022-12-25T10:13:37.801Z,11.50
2022-12-25T10:16:16.503Z,12.40
2022-12-25T10:18:59.396Z,10.70
2022-12-25T10:21:26.288Z,10.68
2022-12-25T10:24:05.394Z,10.98
2022-12-25T10:26:33.991Z,10.75
2022-12-25T10:29:11.679Z,11.10
2022-12-25T10:31:38.254Z,9.75
2022-12-25T10:34:06.635Z,11.32
2022-12-25T10:36:33.510Z,10.30
2022-12-25T10:39:00.138Z,10.60
2022-12-25T10:41:39.411Z,9.27
2022-12-25T10:44:14.488Z,8.27
2022-12-25T10:46:41.572Z,10.65
2022-12-25T10:49:15.270Z,8.38
2022-12-25T10:51:42.167Z,8.68
2022-12-25T10:54:20.584Z,10.83
2022-12-25T10:56:53.656Z,10.13
2022-12-25T10:59:20.180Z,10.65
2022-12-25T11:01:51.010Z,9.43
2022-12-25T11:04:24.636Z,10.13
2022-12-25T11:07:01.409Z,11.40
2022-12-25T11:09:28.060Z,11.32
2022-12-25T11:11:54.776Z,9.60
2022-12-25T11:14:22.318Z,10.57
2022-12-25T11:16:49.101Z,10.20
2022-12-25T11:19:25.627Z,9.40
2022-12-25T11:21:54.053Z,9.45
2022-12-25T11:24:24.834Z,9.18
2022-12-25T11:26:53.452Z,11.40
2022-12-25T11:29:26.099Z,9.50
2022-12-25T11:31:55.047Z,8.50
2022-12-25T11:34:30.160Z,8.77
2022-12-25T11:36:58.907Z,7.45
2022-12-25T11:39:28.362Z,9.02
2022-12-25T11:42:01.989Z,8.23
2022-12-25T11:44:38.500Z,6.77
2022-12-25T11:47:13.586Z,6.90
2022-12-25T11:49:50.040Z,7.38
2022-12-25T11:52:19.383Z,6.88
2022-12-25T11:54:52.869Z,7.30
2022-12-25T11:57:20.856Z,7.67
2022-12-25T11:59:53.716Z,7.40
2022-12-25T12:02:28.766Z,8.05
2022-12-25T12:05:06.843Z,8.50
2022-12-25T12:07:35.233Z,7.65
2022-12-25T12:10:13.676Z,8.67
2022-12-25T12:12:50.582Z,8.65
2022-12-25T12:15:27.285Z,8.15
2022-12-25T12:17:53.832Z,8.65
2022-12-25T12:20:30.352Z,7.70
2022-12-25T12:22:58.030Z,6.93
2022-12-25T12:25:25.159Z,8.00
2022-12-25T12:27:59.798Z,6.95
2022-12-25T12:30:32.270Z,7.75
2022-12-25T12:33:01.879Z,7.68
2022-12-25T12:35:33.247Z,7.07
2022-12-25T12:38:03.401Z,6.72
2022-12-25T12:40:33.822Z,6.88
2022-12-25T12:43:01.439Z,8.07
2022-12-25T12:45:30.673Z,7.68
2022-12-25T12:47:57.647Z,11.63
2022-12-25T12:50:32.643Z,11.05
2022-12-25T12:53:00.823Z,30.45
2022-12-25T12:55:29.065Z,18.90
2022-12-25T12:57:59.363Z,24.10
2022-12-25T13:00:31.726Z,21.13
2022-12-25T13:03:16.802Z,11.35
2022-12-25T13:05:49.664Z,7.63
2022-12-25T13:08:31.271Z,6.15
2022-12-25T13:11:07.330Z,8.13
2022-12-25T13:13:36.767Z,7.73
2022-12-25T13:16:03.975Z,8.88
2022-12-25T13:18:31.739Z,7.65
2022-12-25T13:21:02.940Z,11.27
2022-12-25T13:23:31.969Z,10.07
2022-12-25T13:26:00.182Z,8.70
2022-12-25T13:28:28.197Z,7.93
2022-12-25T13:31:02.082Z,7.80
2022-12-25T13:33:29.195Z,8.05
2022-12-25T13:35:55.794Z,8.02
2022-12-25T13:38:27.255Z,13.63
2022-12-25T13:40:56.334Z,8.07
2022-12-25T13:43:22.948Z,7.47
2022-12-25T13:45:54.600Z,6.65
2022-12-25T13:48:21.614Z,8.65
2022-12-25T13:50:56.617Z,8.70
2022-12-25T13:53:24.768Z,7.63
2022-12-25T13:55:54.345Z,8.32
2022-12-25T13:58:25.086Z,8.05
2022-12-25T14:00:53.783Z,7.63
2022-12-25T14:03:23.752Z,24.57
2022-12-25T14:05:56.250Z,14.90
2022-12-25T14:08:27.046Z,10.90
2022-12-25T14:10:55.583Z,8.27
2022-12-25T14:13:24.925Z,7.55
2022-12-25T14:15:52.135Z,8.17
2022-12-25T14:18:21.920Z,9.93
2022-12-25T14:20:58.757Z,9.27
2022-12-25T14:23:28.744Z,8.25
2022-12-25T14:25:55.316Z,9.80
2022-12-25T14:28:25.272Z,10.07
2022-12-25T14:30:52.254Z,7.80
2022-12-25T14:33:21.569Z,9.07
2022-12-25T14:35:49.173Z,9.63
2022-12-25T14:38:22.859Z,7.80
2022-12-25T14:41:00.198Z,8.87
2022-12-25T14:43:28.359Z,8.07
2022-12-25T14:45:56.222Z,7.97
2022-12-25T14:48:25.744Z,5.85
2022-12-25T14:50:58.216Z,7.15
2022-12-25T14:53:36.138Z,9.27
2022-12-25T14:56:06.541Z,7.80
2022-12-25T14:58:38.124Z,13.63
2022-12-25T15:01:05.276Z,18.38
2022-12-25T15:03:36.409Z,10.07
2022-12-25T15:06:04.811Z,10.37
2022-12-25T15:08:33.129Z,8.18
2022-12-25T15:11:02.313Z,10.68
2022-12-25T15:13:31.531Z,12.65
2022-12-25T15:16:02.005Z,27.70
2022-12-25T15:18:33.051Z,25.70
2022-12-25T15:21:00.000Z,15.30
2022-12-25T15:23:26.512Z,10.82
2022-12-25T15:25:53.217Z,13.40
2022-12-25T15:28:20.361Z,14.45
2022-12-25T15:30:48.592Z,11.27
2022-12-25T15:33:16.635Z,8.95
2022-12-25T15:35:43.836Z,8.43
2022-12-25T15:38:11.098Z,9.48
2022-12-25T15:40:37.801Z,8.98
2022-12-25T15:43:11.221Z,8.03
2022-12-25T15:45:50.410Z,7.50
2022-12-25T15:48:16.920Z,8.07
2022-12-25T15:50:43.660Z,10.13
2022-12-25T15:53:10.666Z,11.18
2022-12-25T15:55:37.437Z,11.17
2022-12-25T15:58:04.044Z,10.93
2022-12-25T16:00:30.683Z,11.15
2022-12-25T16:02:58.707Z,28.75
2022-12-25T16:05:26.816Z,32.58
2022-12-25T16:07:53.371Z,24.33
2022-12-25T16:10:20.170Z,19.85
2022-12-25T16:12:47.005Z,12.93
2022-12-25T16:15:14.948Z,12.00
2022-12-25T16:17:42.292Z,10.98
2022-12-25T16:20:10.901Z,11.80
2022-12-25T16:22:37.574Z,12.50
2022-12-25T16:25:04.619Z,14.30
2022-12-25T16:27:31.328Z,11.88
2022-12-25T16:29:57.879Z,14.73
2022-12-25T16:32:24.616Z,15.17
2022-12-25T16:34:51.338Z,14.52
2022-12-25T16:37:19.787Z,19.42
2022-12-25T16:39:46.460Z,20.02
2022-12-25T16:42:13.223Z,17.40
2022-12-25T16:44:39.756Z,16.50
2022-12-25T16:47:06.285Z,16.67
2022-12-25T16:49:33.265Z,18.80
2022-12-25T16:51:59.992Z,17.05
2022-12-25T16:54:28.235Z,15.23
2022-12-25T16:56:54.923Z,15.27
2022-12-25T16:59:21.479Z,14.65
2022-12-25T17:01:48.355Z,10.15
2022-12-25T17:04:15.051Z,10.02
2022-12-25T17:06:41.770Z,10.80
2022-12-25T17:09:08.319Z,10.70
2022-12-25T17:11:36.415Z,10.32
2022-12-25T17:14:04.747Z,10.23
2022-12-25T17:16:33.307Z,10.48
2022-12-25T17:19:02.441Z,10.02
2022-12-25T17:21:29.556Z,9.73
2022-12-25T17:24:02.326Z,10.20
2022-12-25T17:26:30.611Z,13.70
2022-12-25T17:28:58.605Z,11.38
2022-12-25T17:31:25.537Z,12.95
2022-12-25T17:33:52.404Z,10.20
2022-12-25T17:36:20.875Z,9.77
2022-12-25T17:38:47.820Z,10.63
2022-12-25T17:41:16.240Z,9.77
2022-12-25T17:43:42.995Z,10.77
2022-12-25T17:46:12.749Z,11.30
2022-12-25T17:48:39.603Z,9.65
2022-12-25T17:51:11.197Z,12.63
2022-12-25T17:53:39.171Z,8.70
2022-12-25T17:56:06.578Z,11.07
2022-12-25T17:58:33.662Z,10.07
2022-12-25T18:01:05.632Z,13.40
2022-12-25T18:03:33.956Z,11.40
2022-12-25T18:06:00.922Z,11.65
2022-12-25T18:08:32.436Z,10.48
2022-12-25T18:11:03.842Z,8.27
2022-12-25T18:13:30.436Z,9.35
2022-12-25T18:15:57.311Z,8.38
2022-12-25T18:18:23.911Z,8.05
2022-12-25T18:20:53.225Z,9.73
2022-12-25T18:23:19.908Z,10.80
2022-12-25T18:25:46.660Z,8.30
2022-12-25T18:28:13.604Z,9.68
2022-12-25T18:30:40.600Z,13.35
2022-12-25T18:33:07.516Z,9.63
2022-12-25T18:35:34.642Z,10.13
2022-12-25T18:38:02.792Z,12.52
2022-12-25T18:40:29.381Z,12.13
2022-12-25T18:43:02.712Z,17.25
2022-12-25T18:45:29.985Z,9.25
2022-12-25T18:47:56.646Z,12.63
2022-12-25T18:50:23.340Z,9.02
2022-12-25T18:52:51.603Z,7.53
2022-12-25T18:55:20.333Z,8.98
2022-12-25T18:57:47.309Z,8.10
2022-12-25T19:00:14.375Z,7.50
2022-12-25T19:02:41.094Z,8.88
2022-12-25T19:05:08.048Z,7.53
2022-12-25T19:07:34.763Z,6.95
2022-12-25T19:10:01.272Z,6.93
2022-12-25T19:12:29.176Z,7.40
2022-12-25T19:14:55.724Z,7.63
2022-12-25T19:17:26.631Z,6.95
2022-12-25T19:19:57.897Z,7.03
2022-12-25T19:22:24.427Z,6.85
2022-12-25T19:24:50.942Z,6.43
2022-12-25T19:27:17.832Z,6.70
2022-12-25T19:29:45.803Z,6.40
2022-12-25T19:32:12.360Z,8.68
2022-12-25T19:34:38.956Z,6.32
2022-12-25T19:37:05.480Z,8.63
2022-12-25T19:39:32.267Z,6.20
2022-12-25T19:41:58.954Z,6.57
2022-12-25T19:44:26.213Z,8.30
2022-12-25T19:46:54.136Z,9.77
2022-12-25T19:49:20.951Z,8.67
2022-12-25T19:51:47.770Z,6.20
2022-12-25T19:54:16.689Z,7.35
2022-12-25T19:56:43.415Z,7.95
2022-12-25T19:59:12.331Z,6.68
2022-12-25T20:01:39.623Z,7.00
2022-12-25T20:04:08.845Z,7.15
2022-12-25T20:06:37.672Z,6.97
2022-12-25T20:09:06.205Z,7.40
2022-12-25T20:11:33.768Z,7.43
2022-12-25T20:14:01.273Z,7.40
2022-12-25T20:16:27.909Z,7.95
2022-12-25T20:18:54.957Z,7.10
2022-12-25T20:21:23.819Z,6.80
2022-12-25T20:23:52.199Z,8.05
2022-12-25T20:26:24.274Z,6.80
2022-12-25T20:28:51.983Z,8.25
2022-12-25T20:31:21.108Z,6.80
2022-12-25T20:33:48.125Z,7.72
2022-12-25T20:36:15.393Z,6.85
2022-12-25T20:38:43.514Z,9.13
2022-12-25T20:41:30.020Z,6.57
2022-12-25T20:43:57.338Z,6.55
2022-12-25T20:46:24.524Z,7.28
2022-12-25T20:48:51.715Z,8.65
2022-12-25T20:51:20.656Z,8.40
2022-12-25T20:53:49.271Z,7.47
2022-12-25T20:56:18.040Z,6.43
2022-12-25T20:58:46.289Z,7.82
2022-12-25T21:01:15.646Z,8.32
2022-12-25T21:03:43.011Z,8.50
2022-12-25T21:06:10.421Z,8.88
2022-12-25T21:08:38.147Z,8.60
2022-12-25T21:11:11.731Z,10.23
2022-12-25T21:13:40.544Z,10.10
2022-12-25T21:16:08.926Z,7.70
2022-12-25T21:18:39.331Z,6.80
2022-12-25T21:21:07.027Z,9.65
2022-12-25T21:23:34.617Z,7.53
2022-12-25T21:26:10.912Z,6.55
2022-12-25T21:28:37.623Z,7.07
2022-12-25T21:31:05.295Z,7.57
2022-12-25T21:33:32.747Z,6.95
2022-12-25T21:36:05.204Z,7.72
2022-12-25T21:38:32.015Z,8.25
2022-12-25T21:41:02.833Z,6.13
2022-12-25T21:43:31.128Z,7.15
2022-12-25T21:46:01.692Z,7.15
2022-12-25T21:48:28.613Z,9.02
2022-12-25T21:50:55.144Z,7.18
2022-12-25T21:53:22.328Z,6.87
2022-12-25T21:55:56.326Z,8.07
2022-12-25T21:58:23.207Z,8.23
2022-12-25T22:00:51.313Z,7.95
2022-12-25T22:03:18.204Z,6.10
2022-12-25T22:05:45.034Z,8.07
2022-12-25T22:08:11.610Z,7.03
2022-12-25T22:10:38.217Z,6.90
2022-12-25T22:13:04.862Z,7.28
2022-12-25T22:15:31.606Z,7.70
2022-12-25T22:17:59.756Z,6.70
2022-12-25T22:20:28.423Z,8.15
2022-12-25T22:22:55.067Z,6.50
2022-12-25T22:25:22.170Z,8.73
2022-12-25T22:27:49.471Z,8.00
2022-12-25T22:30:18.205Z,7.50
2022-12-25T22:32:45.246Z,7.30
2022-12-25T22:35:14.023Z,7.88
2022-12-25T22:37:42.204Z,7.97
2022-12-25T22:40:10.843Z,7.40
2022-12-25T22:42:37.391Z,7.10
2022-12-25T22:45:05.058Z,7.90
2022-12-25T22:47:31.650Z,7.53
2022-12-25T22:49:58.275Z,7.95
2022-12-25T22:52:26.207Z,8.80
2022-12-25T22:54:52.812Z,8.50
2022-12-25T22:57:19.504Z,7.20
2022-12-25T22:59:46.087Z,7.82
2022-12-25T23:02:12.828Z,8.20
2022-12-25T23:04:39.707Z,8.40
2022-12-25T23:07:06.257Z,8.03
2022-12-25T23:09:34.266Z,7.55
2022-12-25T23:12:00.872Z,8.45
2022-12-25T23:14:27.520Z,9.50
2022-12-25T23:16:54.288Z,7.78
2022-12-25T23:19:20.901Z,8.37
2022-12-25T23:21:47.480Z,7.65
2022-12-25T23:24:14.128Z,7.60
2022-12-25T23:26:42.127Z,10.60
2022-12-25T23:29:08.720Z,7.63
2022-12-25T23:31:37.816Z,6.97
2022-12-25T23:34:05.176Z,7.00
2022-12-25T23:36:32.140Z,7.60
2022-12-25T23:39:04.718Z,8.50
2022-12-25T23:41:33.597Z,8.20
2022-12-25T23:44:01.578Z,7.43
2022-12-25T23:46:28.225Z,11.13
2022-12-25T23:48:54.793Z,8.13
2022-12-25T23:51:21.409Z,8.00
2022-12-25T23:53:47.972Z,9.85
2022-12-25T23:56:14.709Z,7.73
2022-12-25T23:58:41.398Z,7.03
